Latest METARs, TAFs and NOTAMs for SKCL


---------------------------------------------------------------------------
	(OBSERVATIONS)
SKCL 212200Z 31013KT 9999 FEW030CB SCT300 29/18 A2988 RMK CB/E=
SKCL 212100Z 33011KT 9999 SCT033 29/19 A2988=
SKCL 212000Z 32009KT 280V350 9999 SCT030CB SCT120 30/19 A2990
    RMK CB/SW=
---------------------------------------------------------------------------
	(TERMINAL AREA FORECAST)
SKCL 212300Z 2200/2224 VRB03KT 9999 SCT020 SCT080
    TEMPO 2202/2208 4000 DZRA SCT015CB SCT017
    PROB40 TEMPO 2204/2207 3000 TSRA SCT012CB SCT015
    TEMPO 2211/2213 4000 BR SCT010
    TX32/2219Z TN19/2211Z =
---------------------------------------------------------------------------
	(NOTAMS)


SKCL A0032/18 APN, APN CARGA AND APN DESCONGESTION WIP, EXE CTN.
    05 JAN 16:45 2018 UNTIL 05 APR 23:59 2018. CREATED: 05 JAN
    16:48 2018

SKCL A0064/18 STRIP RWY 02/20 WIP, EXER CTN. H24, 10 JAN 00:00
    2018 UNTIL 31 MAR 23:59 2018. CREATED: 09 JAN 21:57 2018

SKCL A0067/18 STRIP TWY A1,B,C,D,E,A3,G,R,P,L,K WIP, EXER CTN.
    H24, 10 JAN 15:00 2018 UNTIL 31 MAR 23:59 2018. CREATED:
    10 JAN 15:01 2018

SKCL A0330/18 ILS/LLZ IPAS FREQ 109.9 MHZ U/S. 20 FEB 02:45 2018
    UNTIL 27 FEB 23:59 2018 ESTIMATED. CREATED: 20 FEB 02:45
    2018

SKCL A0463/17 RWY 02/20 LTD RESTRICTED FLT TRG DUE FAILURES FREQ
    AND FLOW OF TFC 15 FEB 14:15 UNTIL 22 FEB 23:59 ESTIMATED
    H24

SKCL A0632/17 TURBINE START POINT NR 08 INSTL NEXT COORD: 033207,81N0762307,42W
    TURBINE START POINT NR 09 INSTL NEXT COORD: 033203,04N0762308,24W
    03 MAR 15:00 UNTIL PERM

SKCL A1134/17 ACFT STAND G5 AUTH TEST ENGINES, ACFT TIL CAT B
    REF. AIP AD APDC. 25 APR 14:47 2017 UNTIL PERM. CREATED:
    25 APR 14:49 2017

SKCL A1237/17 HELIPORT H1, H2, H3 CLSD TO ALL NGT OPS REF. AIP
    AD 2.16 - SKCL. 03 MAY 19:05 2017 UNTIL PERM. CREATED: 03
    MAY 19:09 2017

SKCL A2332/17 ENG START POINT NR 01 INSTL NEXT COORD: 033219,16N0762318,08W
    REF AIP AD 2 SKCL PLANO DE SPOTS. 25 AUG 21:38 2017 UNTIL
    PERM. CREATED: 25 AUG 21:54 2017

SKCL A2788/17 ACFT STAND NR A-4 INSTL ON COORD 033215,070N0762316,930W.
    04 OCT 13:38 2017 UNTIL PERM. CREATED: 04 OCT 13:49 2017

SKCL A4756/16 STAR BUENAVENTURA 2D (BUN2D) HAS CHANGED TO BUENAVENTURA
    3D (BUN3D). 19 DEC 14:48 2016 UNTIL PERM. CREATED: 02 JAN
    21:53 2018

---------------------------------------------------------------------------